sensor_id;sensor_type;location;lat;lon;timestamp;pressure;altitude;pressure_sealevel;temperature;humidity
61710;BME280;47633;51.494;5.386;2022-12-24T00:01:05;100567.41;;;19.19;46.63
61710;BME280;47633;51.494;5.386;2022-12-24T00:03:31;100569.25;;;19.19;46.68
61710;BME280;47633;51.494;5.386;2022-12-24T00:05:56;100560.50;;;19.18;46.49
61710;BME280;47633;51.494;5.386;2022-12-24T00:08:22;100555.34;;;19.17;46.61
61710;BME280;47633;51.494;5.386;2022-12-24T00:10:51;100567.84;;;19.15;46.75
61710;BME280;47633;51.494;5.386;2022-12-24T00:13:18;100565.91;;;19.17;46.75
61710;BME280;47633;51.494;5.386;2022-12-24T00:15:44;100572.00;;;19.17;46.82
61710;BME280;47633;51.494;5.386;2022-12-24T00:18:09;100569.66;;;19.14;46.66
61710;BME280;47633;51.494;5.386;2022-12-24T00:20:34;100575.63;;;19.16;46.75
61710;BME280;47633;51.494;5.386;2022-12-24T00:23:00;100587.19;;;19.15;46.80
61710;BME280;47633;51.494;5.386;2022-12-24T00:25:25;100585.78;;;19.11;46.80
61710;BME280;47633;51.494;5.386;2022-12-24T00:27:50;100586.59;;;19.12;46.61
61710;BME280;47633;51.494;5.386;2022-12-24T00:30:15;100584.81;;;19.12;46.59
61710;BME280;47633;51.494;5.386;2022-12-24T00:32:41;100589.38;;;19.10;46.42
61710;BME280;47633;51.494;5.386;2022-12-24T00:35:06;100590.50;;;19.08;46.43
61710;BME280;47633;51.494;5.386;2022-12-24T00:37:32;100598.97;;;19.11;46.59
61710;BME280;47633;51.494;5.386;2022-12-24T00:39:57;100596.47;;;19.10;46.55
61710;BME280;47633;51.494;5.386;2022-12-24T00:42:22;100596.59;;;19.08;46.65
61710;BME280;47633;51.494;5.386;2022-12-24T00:44:47;100606.63;;;19.05;46.61
61710;BME280;47633;51.494;5.386;2022-12-24T00:47:13;100615.22;;;19.07;46.49
61710;BME280;47633;51.494;5.386;2022-12-24T00:49:38;100619.69;;;19.06;46.46
61710;BME280;47633;51.494;5.386;2022-12-24T00:52:03;100622.47;;;19.05;46.56
61710;BME280;47633;51.494;5.386;2022-12-24T00:54:29;100633.16;;;19.03;46.37
61710;BME280;47633;51.494;5.386;2022-12-24T00:56:54;100628.16;;;19.00;46.52
61710;BME280;47633;51.494;5.386;2022-12-24T00:59:19;100625.66;;;18.98;46.55
61710;BME280;47633;51.494;5.386;2022-12-24T01:01:44;100635.13;;;19.01;46.44
61710;BME280;47633;51.494;5.386;2022-12-24T01:04:10;100638.84;;;18.98;46.38
61710;BME280;47633;51.494;5.386;2022-12-24T01:06:54;100646.63;;;19.00;46.48
61710;BME280;47633;51.494;5.386;2022-12-24T01:09:20;100642.59;;;18.96;46.43
61710;BME280;47633;51.494;5.386;2022-12-24T01:11:45;100635.66;;;18.95;46.23
61710;BME280;47633;51.494;5.386;2022-12-24T01:14:11;100645.09;;;18.97;46.25
61710;BME280;47633;51.494;5.386;2022-12-24T01:16:36;100646.91;;;18.97;46.24
61710;BME280;47633;51.494;5.386;2022-12-24T01:19:01;100653.16;;;18.96;46.38
61710;BME280;47633;51.494;5.386;2022-12-24T01:21:26;100652.59;;;18.92;46.20
61710;BME280;47633;51.494;5.386;2022-12-24T01:23:52;100654.53;;;18.90;46.29
61710;BME280;47633;51.494;5.386;2022-12-24T01:26:17;100665.66;;;18.94;46.15
61710;BME280;47633;51.494;5.386;2022-12-24T01:28:42;100669.25;;;18.93;46.24
61710;BME280;47633;51.494;5.386;2022-12-24T01:31:13;100671.47;;;18.88;46.30
61710;BME280;47633;51.494;5.386;2022-12-24T01:33:39;100669.38;;;18.91;46.17
61710;BME280;47633;51.494;5.386;2022-12-24T01:36:05;100673.03;;;18.90;46.26
61710;BME280;47633;51.494;5.386;2022-12-24T01:38:31;100671.59;;;18.86;45.97
61710;BME280;47633;51.494;5.386;2022-12-24T01:40:56;100673.16;;;18.89;45.96
61710;BME280;47633;51.494;5.386;2022-12-24T01:43:40;100671.59;;;18.86;46.21
61710;BME280;47633;51.494;5.386;2022-12-24T01:48:51;100692.59;;;18.88;46.34
61710;BME280;47633;51.494;5.386;2022-12-24T01:51:37;100674.19;;;18.76;46.11
61710;BME280;47633;51.494;5.386;2022-12-24T01:54:08;100685.16;;;18.81;46.07
61710;BME280;47633;51.494;5.386;2022-12-24T01:56:36;100692.84;;;18.84;46.20
61710;BME280;47633;51.494;5.386;2022-12-24T01:59:05;100689.41;;;18.84;46.02
61710;BME280;47633;51.494;5.386;2022-12-24T02:01:32;100681.84;;;18.79;46.31
61710;BME280;47633;51.494;5.386;2022-12-24T02:03:58;100705.25;;;18.84;46.02
61710;BME280;47633;51.494;5.386;2022-12-24T02:06:26;100700.06;;;18.82;45.99
61710;BME280;47633;51.494;5.386;2022-12-24T02:08:51;100694.09;;;18.80;45.92
61710;BME280;47633;51.494;5.386;2022-12-24T02:11:19;100704.19;;;18.75;46.32
61710;BME280;47633;51.494;5.386;2022-12-24T02:13:56;100707.53;;;18.77;46.19
61710;BME280;47633;51.494;5.386;2022-12-24T02:16:36;100716.16;;;18.79;46.11
61710;BME280;47633;51.494;5.386;2022-12-24T02:21:51;100715.34;;;18.79;46.42
61710;BME280;47633;51.494;5.386;2022-12-24T02:29:26;100725.16;;;18.77;46.36
61710;BME280;47633;51.494;5.386;2022-12-24T02:32:01;100716.69;;;18.73;46.11
61710;BME280;47633;51.494;5.386;2022-12-24T02:37:03;100738.38;;;18.77;46.40
61710;BME280;47633;51.494;5.386;2022-12-24T02:39:39;100736.84;;;18.74;46.11
61710;BME280;47633;51.494;5.386;2022-12-24T02:42:08;100722.09;;;18.72;46.43
61710;BME280;47633;51.494;5.386;2022-12-24T02:44:41;100732.91;;;18.68;46.44
61710;BME280;47633;51.494;5.386;2022-12-24T02:47:08;100736.84;;;18.74;46.18
61710;BME280;47633;51.494;5.386;2022-12-24T02:49:35;100732.78;;;18.70;46.24
61710;BME280;47633;51.494;5.386;2022-12-24T02:52:01;100735.97;;;18.74;46.33
61710;BME280;47633;51.494;5.386;2022-12-24T02:54:26;100738.75;;;18.72;46.60
61710;BME280;47633;51.494;5.386;2022-12-24T02:57:11;100735.16;;;18.73;46.42
61710;BME280;47633;51.494;5.386;2022-12-24T02:59:58;100743.09;;;18.73;46.26
61710;BME280;47633;51.494;5.386;2022-12-24T03:05:21;100741.53;;;18.71;46.61
61710;BME280;47633;51.494;5.386;2022-12-24T03:10:56;100751.81;;;18.74;46.46
61710;BME280;47633;51.494;5.386;2022-12-24T03:13:26;100750.19;;;18.73;46.44
61710;BME280;47633;51.494;5.386;2022-12-24T03:15:52;100746.94;;;18.69;46.58
61710;BME280;47633;51.494;5.386;2022-12-24T03:18:20;100743.34;;;18.70;46.76
61710;BME280;47633;51.494;5.386;2022-12-24T03:20:51;100741.94;;;18.66;46.69
61710;BME280;47633;51.494;5.386;2022-12-24T03:23:18;100746.09;;;18.68;46.53
61710;BME280;47633;51.494;5.386;2022-12-24T03:25:44;100752.09;;;18.71;46.55
61710;BME280;47633;51.494;5.386;2022-12-24T03:28:12;100758.34;;;18.70;46.51
61710;BME280;47633;51.494;5.386;2022-12-24T03:30:40;100752.22;;;18.69;46.60
61710;BME280;47633;51.494;5.386;2022-12-24T03:33:05;100753.19;;;18.68;46.57
61710;BME280;47633;51.494;5.386;2022-12-24T03:35:30;100752.50;;;18.66;46.87
61710;BME280;47633;51.494;5.386;2022-12-24T03:37:56;100754.41;;;18.64;46.80
61710;BME280;47633;51.494;5.386;2022-12-24T03:40:21;100766.41;;;18.68;46.52
61710;BME280;47633;51.494;5.386;2022-12-24T03:42:46;100767.22;;;18.68;46.47
61710;BME280;47633;51.494;5.386;2022-12-24T03:45:12;100763.06;;;18.66;46.59
61710;BME280;47633;51.494;5.386;2022-12-24T03:47:37;100764.97;;;18.64;46.59
61710;BME280;47633;51.494;5.386;2022-12-24T03:50:02;100769.44;;;18.63;46.49
61710;BME280;47633;51.494;5.386;2022-12-24T03:52:28;100767.75;;;18.62;46.50
61710;BME280;47633;51.494;5.386;2022-12-24T03:54:53;100764.16;;;18.63;46.58
61710;BME280;47633;51.494;5.386;2022-12-24T03:57:18;100772.91;;;18.64;46.62
61710;BME280;47633;51.494;5.386;2022-12-24T03:59:44;100774.56;;;18.65;46.50
61710;BME280;47633;51.494;5.386;2022-12-24T04:02:09;100770.25;;;18.64;46.77
61710;BME280;47633;51.494;5.386;2022-12-24T04:04:34;100771.38;;;18.61;46.71
61710;BME280;47633;51.494;5.386;2022-12-24T04:07:02;100774.00;;;18.61;46.77
61710;BME280;47633;51.494;5.386;2022-12-24T04:09:28;100774.84;;;18.62;46.63
61710;BME280;47633;51.494;5.386;2022-12-24T04:11:53;100769.56;;;18.62;46.75
61710;BME280;47633;51.494;5.386;2022-12-24T04:14:19;100782.75;;;18.62;46.67
61710;BME280;47633;51.494;5.386;2022-12-24T04:16:44;100782.06;;;18.60;46.71
61710;BME280;47633;51.494;5.386;2022-12-24T04:19:09;100783.00;;;18.59;46.85
61710;BME280;47633;51.494;5.386;2022-12-24T04:21:34;100779.53;;;18.58;46.84
61710;BME280;47633;51.494;5.386;2022-12-24T04:24:00;100782.06;;;18.60;46.88
61710;BME280;47633;51.494;5.386;2022-12-24T04:26:25;100798.72;;;18.60;46.84
61710;BME280;47633;51.494;5.386;2022-12-24T04:28:50;100795.50;;;18.57;46.86
61710;BME280;47633;51.494;5.386;2022-12-24T04:31:16;100793.81;;;18.56;46.70
61710;BME280;47633;51.494;5.386;2022-12-24T04:33:42;100794.66;;;18.56;46.75
61710;BME280;47633;51.494;5.386;2022-12-24T04:36:13;100813.84;;;18.58;46.92
61710;BME280;47633;51.494;5.386;2022-12-24T04:38:39;100816.38;;;18.60;46.98
61710;BME280;47633;51.494;5.386;2022-12-24T04:41:07;100805.94;;;18.58;47.14
61710;BME280;47633;51.494;5.386;2022-12-24T04:43:33;100812.16;;;18.57;46.92
61710;BME280;47633;51.494;5.386;2022-12-24T04:46:07;100799.94;;;18.56;46.99
61710;BME280;47633;51.494;5.386;2022-12-24T04:48:34;100812.03;;;18.59;47.08
61710;BME280;47633;51.494;5.386;2022-12-24T04:51:03;100805.94;;;18.58;46.86
61710;BME280;47633;51.494;5.386;2022-12-24T04:53:29;100805.94;;;18.58;46.69
61710;BME280;47633;51.494;5.386;2022-12-24T04:55:54;100810.34;;;18.58;46.98
61710;BME280;47633;51.494;5.386;2022-12-24T04:58:19;100809.66;;;18.56;46.98
61710;BME280;47633;51.494;5.386;2022-12-24T05:00:45;100814.09;;;18.55;46.87
61710;BME280;47633;51.494;5.386;2022-12-24T05:03:10;100817.69;;;18.54;46.95
61710;BME280;47633;51.494;5.386;2022-12-24T05:05:35;100821.91;;;18.57;46.88
61710;BME280;47633;51.494;5.386;2022-12-24T05:08:00;100815.88;;;18.55;46.72
61710;BME280;47633;51.494;5.386;2022-12-24T05:10:26;100814.50;;;18.51;47.02
61710;BME280;47633;51.494;5.386;2022-12-24T05:12:51;100836.19;;;18.54;46.87
61710;BME280;47633;51.494;5.386;2022-12-24T05:15:16;100829.94;;;18.55;46.81
61710;BME280;47633;51.494;5.386;2022-12-24T05:17:42;100825.63;;;18.54;46.75
61710;BME280;47633;51.494;5.386;2022-12-24T05:20:07;100824.78;;;18.54;46.83
61710;BME280;47633;51.494;5.386;2022-12-24T05:22:32;100823.81;;;18.55;46.81
61710;BME280;47633;51.494;5.386;2022-12-24T05:25:16;100812.41;;;18.54;46.54
61710;BME280;47633;51.494;5.386;2022-12-24T05:28:00;100805.88;;;18.48;46.91
61710;BME280;47633;51.494;5.386;2022-12-24T05:30:25;100823.94;;;18.53;46.99
61710;BME280;47633;51.494;5.386;2022-12-24T05:32:50;100823.22;;;18.51;46.84
61710;BME280;47633;51.494;5.386;2022-12-24T05:35:16;100816.31;;;18.50;47.06
61710;BME280;47633;51.494;5.386;2022-12-24T05:37:41;100824.91;;;18.52;46.97
61710;BME280;47633;51.494;5.386;2022-12-24T05:40:07;100828.38;;;18.53;47.07
61710;BME280;47633;51.494;5.386;2022-12-24T05:42:32;100822.41;;;18.51;46.69
61710;BME280;47633;51.494;5.386;2022-12-24T05:44:58;100833.78;;;18.51;46.97
61710;BME280;47633;51.494;5.386;2022-12-24T05:47:23;100837.25;;;18.52;47.05
61710;BME280;47633;51.494;5.386;2022-12-24T05:49:48;100850.44;;;18.52;46.60
61710;BME280;47633;51.494;5.386;2022-12-24T05:52:13;100852.38;;;18.49;46.95
61710;BME280;47633;51.494;5.386;2022-12-24T05:54:39;100857.91;;;18.46;46.85
61710;BME280;47633;51.494;5.386;2022-12-24T05:57:04;100863.94;;;18.48;46.84
61710;BME280;47633;51.494;5.386;2022-12-24T05:59:29;100856.84;;;18.49;46.90
61710;BME280;47633;51.494;5.386;2022-12-24T06:01:54;100855.16;;;18.48;46.84
61710;BME280;47633;51.494;5.386;2022-12-24T06:04:20;100854.97;;;18.40;46.95
61710;BME280;47633;51.494;5.386;2022-12-24T06:06:45;100866.44;;;18.50;46.81
61710;BME280;47633;51.494;5.386;2022-12-24T06:09:10;100864.88;;;18.47;46.63
61710;BME280;47633;51.494;5.386;2022-12-24T06:11:36;100858.66;;;18.48;46.77
61710;BME280;47633;51.494;5.386;2022-12-24T06:14:01;100857.66;;;18.49;46.55
61710;BME280;47633;51.494;5.386;2022-12-24T06:16:26;100857.53;;;18.51;46.73
61710;BME280;47633;51.494;5.386;2022-12-24T06:18:52;100856.47;;;18.54;46.86
61710;BME280;47633;51.494;5.386;2022-12-24T06:21:18;100875.50;;;18.57;46.71
61710;BME280;47633;51.494;5.386;2022-12-24T06:23:44;100869.97;;;18.60;47.05
61710;BME280;47633;51.494;5.386;2022-12-24T06:26:15;100871.66;;;18.61;46.87
61710;BME280;47633;51.494;5.386;2022-12-24T06:28:40;100873.19;;;18.64;47.01
61710;BME280;47633;51.494;5.386;2022-12-24T06:31:11;100884.19;;;18.69;46.52
61710;BME280;47633;51.494;5.386;2022-12-24T06:33:36;100880.63;;;18.70;46.86
61710;BME280;47633;51.494;5.386;2022-12-24T06:36:05;100889.22;;;18.72;46.62
61710;BME280;47633;51.494;5.386;2022-12-24T06:38:31;100883.00;;;18.73;46.68
61710;BME280;47633;51.494;5.386;2022-12-24T06:40:56;100890.41;;;18.79;46.65
61710;BME280;47633;51.494;5.386;2022-12-24T06:43:22;100894.63;;;18.82;46.63
61710;BME280;47633;51.494;5.386;2022-12-24T06:45:47;100898.56;;;18.88;46.69
61710;BME280;47633;51.494;5.386;2022-12-24T06:48:14;100896.75;;;18.88;46.77
61710;BME280;47633;51.494;5.386;2022-12-24T06:50:40;100892.06;;;18.92;46.58
61710;BME280;47633;51.494;5.386;2022-12-24T06:53:05;100890.25;;;18.92;46.59
61710;BME280;47633;51.494;5.386;2022-12-24T06:55:31;100905.97;;;18.94;46.48
61710;BME280;47633;51.494;5.386;2022-12-24T06:57:56;100901.38;;;18.96;46.21
61710;BME280;47633;51.494;5.386;2022-12-24T07:00:22;100905.72;;;18.97;46.36
61710;BME280;47633;51.494;5.386;2022-12-24T07:02:47;100911.69;;;18.99;46.25
61710;BME280;47633;51.494;5.386;2022-12-24T07:05:13;100920.34;;;19.01;46.23
61710;BME280;47633;51.494;5.386;2022-12-24T07:07:40;100915.31;;;18.98;46.52
61710;BME280;47633;51.494;5.386;2022-12-24T07:10:07;100919.75;;;18.97;46.24
61710;BME280;47633;51.494;5.386;2022-12-24T07:12:34;100921.56;;;18.97;46.05
61710;BME280;47633;51.494;5.386;2022-12-24T07:14:59;100917.22;;;18.96;46.32
61710;BME280;47633;51.494;5.386;2022-12-24T07:17:24;100917.72;;;19.01;46.17
61710;BME280;47633;51.494;5.386;2022-12-24T07:19:50;100924.19;;;18.97;46.11
61710;BME280;47633;51.494;5.386;2022-12-24T07:22:15;100916.28;;;18.97;46.11
61710;BME280;47633;51.494;5.386;2022-12-24T07:24:40;100918.09;;;18.96;46.18
61710;BME280;47633;51.494;5.386;2022-12-24T07:27:06;100926.97;;;18.95;46.04
61710;BME280;47633;51.494;5.386;2022-12-24T07:29:31;100928.53;;;18.98;45.83
61710;BME280;47633;51.494;5.386;2022-12-24T07:31:56;100931.03;;;18.99;46.06
61710;BME280;47633;51.494;5.386;2022-12-24T07:34:21;100939.34;;;18.95;45.74
61710;BME280;47633;51.494;5.386;2022-12-24T07:36:47;100948.66;;;18.99;45.74
61710;BME280;47633;51.494;5.386;2022-12-24T07:39:12;100950.88;;;18.94;45.93
61710;BME280;47633;51.494;5.386;2022-12-24T07:41:37;100948.66;;;18.99;46.02
61710;BME280;47633;51.494;5.386;2022-12-24T07:44:03;100953.13;;;18.98;45.76
61710;BME280;47633;51.494;5.386;2022-12-24T07:46:28;100948.09;;;18.95;45.77
61710;BME280;47633;51.494;5.386;2022-12-24T07:48:53;100951.69;;;18.94;45.74
61710;BME280;47633;51.494;5.386;2022-12-24T07:51:19;100966.34;;;18.98;46.00
61710;BME280;47633;51.494;5.386;2022-12-24T07:53:44;100974.25;;;18.98;45.75
61710;BME280;47633;51.494;5.386;2022-12-24T07:56:13;100970.19;;;18.94;45.60
61710;BME280;47633;51.494;5.386;2022-12-24T07:58:39;100975.47;;;18.94;45.91
61710;BME280;47633;51.494;5.386;2022-12-24T08:01:05;100983.25;;;18.96;46.02
61710;BME280;47633;51.494;5.386;2022-12-24T08:03:30;100992.16;;;18.95;45.63
61710;BME280;47633;51.494;5.386;2022-12-24T08:05:55;100992.16;;;18.95;45.64
61710;BME280;47633;51.494;5.386;2022-12-24T08:08:22;100978.88;;;18.85;45.72
61710;BME280;47633;51.494;5.386;2022-12-24T08:10:47;100994.69;;;18.96;45.84
61710;BME280;47633;51.494;5.386;2022-12-24T08:13:13;101004.25;;;18.97;45.92
61710;BME280;47633;51.494;5.386;2022-12-24T08:15:39;101011.59;;;18.94;45.98
61710;BME280;47633;51.494;5.386;2022-12-24T08:18:04;101009.78;;;18.94;45.89
61710;BME280;47633;51.494;5.386;2022-12-24T08:20:29;101014.25;;;18.94;45.94
61710;BME280;47633;51.494;5.386;2022-12-24T08:22:54;101013.41;;;18.93;45.74
61710;BME280;47633;51.494;5.386;2022-12-24T08:25:20;101026.25;;;18.98;46.03
61710;BME280;47633;51.494;5.386;2022-12-24T08:27:45;101021.22;;;18.95;46.09
61710;BME280;47633;51.494;5.386;2022-12-24T08:30:11;101024.69;;;18.95;45.86
61710;BME280;47633;51.494;5.386;2022-12-24T08:32:37;101034.88;;;19.00;46.13
61710;BME280;47633;51.494;5.386;2022-12-24T08:35:03;101037.66;;;18.98;46.39
61710;BME280;47633;51.494;5.386;2022-12-24T08:37:29;101051.44;;;19.02;46.44
61710;BME280;47633;51.494;5.386;2022-12-24T08:39:54;101048.78;;;19.02;46.66
61710;BME280;47633;51.494;5.386;2022-12-24T08:42:19;101040.28;;;18.98;46.89
61710;BME280;47633;51.494;5.386;2022-12-24T08:44:44;101036.28;;;19.04;46.71
61710;BME280;47633;51.494;5.386;2022-12-24T08:47:10;101044.81;;;19.08;46.71
61710;BME280;47633;51.494;5.386;2022-12-24T08:49:35;101051.06;;;19.07;46.69
61710;BME280;47633;51.494;5.386;2022-12-24T08:52:00;101050.22;;;19.06;46.42
61710;BME280;47633;51.494;5.386;2022-12-24T08:54:26;101058.28;;;19.05;46.77
61710;BME280;47633;51.494;5.386;2022-12-24T08:56:51;101056.47;;;19.05;46.74
61710;BME280;47633;51.494;5.386;2022-12-24T08:59:16;101054.78;;;19.04;46.62
61710;BME280;47633;51.494;5.386;2022-12-24T09:01:42;101053.94;;;19.03;46.80
61710;BME280;47633;51.494;5.386;2022-12-24T09:04:07;101056.47;;;19.05;47.07
61710;BME280;47633;51.494;5.386;2022-12-24T09:06:34;101065.09;;;19.07;47.35
61710;BME280;47633;51.494;5.386;2022-12-24T09:08:59;101077.22;;;19.10;47.43
61710;BME280;47633;51.494;5.386;2022-12-24T09:11:24;101073.88;;;19.08;47.23
61710;BME280;47633;51.494;5.386;2022-12-24T09:13:50;101080.94;;;19.07;47.45
61710;BME280;47633;51.494;5.386;2022-12-24T09:16:15;101076.63;;;19.06;47.45
61710;BME280;47633;51.494;5.386;2022-12-24T09:18:41;101096.53;;;19.10;47.34
61710;BME280;47633;51.494;5.386;2022-12-24T09:21:09;101097.53;;;19.09;47.56
61710;BME280;47633;51.494;5.386;2022-12-24T09:23:36;101103.75;;;19.08;47.59
61710;BME280;47633;51.494;5.386;2022-12-24T09:26:09;101109.03;;;19.08;47.67
61710;BME280;47633;51.494;5.386;2022-12-24T09:28:36;101114.91;;;19.12;47.35
61710;BME280;47633;51.494;5.386;2022-12-24T09:31:02;101112.28;;;19.12;47.64
61710;BME280;47633;51.494;5.386;2022-12-24T09:33:29;101115.03;;;19.10;47.51
61710;BME280;47633;51.494;5.386;2022-12-24T09:35:55;101120.94;;;19.14;47.67
61710;BME280;47633;51.494;5.386;2022-12-24T09:38:21;101120.94;;;19.14;47.69
61710;BME280;47633;51.494;5.386;2022-12-24T09:40:47;101123.56;;;19.14;47.72
61710;BME280;47633;51.494;5.386;2022-12-24T09:43:16;101125.47;;;19.12;47.82
61710;BME280;47633;51.494;5.386;2022-12-24T09:45:51;101122.72;;;19.13;47.43
61710;BME280;47633;51.494;5.386;2022-12-24T09:48:27;101126.22;;;19.14;47.54
61710;BME280;47633;51.494;5.386;2022-12-24T09:51:07;101140.13;;;19.16;47.66
61710;BME280;47633;51.494;5.386;2022-12-24T09:53:39;101147.09;;;19.17;47.73
61710;BME280;47633;51.494;5.386;2022-12-24T09:56:17;101140.97;;;19.16;47.88
61710;BME280;47633;51.494;5.386;2022-12-24T09:58:56;101145.28;;;19.17;47.76
61710;BME280;47633;51.494;5.386;2022-12-24T10:01:22;101147.09;;;19.17;47.29
61710;BME280;47633;51.494;5.386;2022-12-24T10:03:47;101156.81;;;19.16;47.53
61710;BME280;47633;51.494;5.386;2022-12-24T10:06:19;101156.69;;;19.18;47.38
61710;BME280;47633;51.494;5.386;2022-12-24T10:09:02;101155.03;;;19.17;47.58
61710;BME280;47633;51.494;5.386;2022-12-24T10:20:14;101159.91;;;19.21;47.89
61710;BME280;47633;51.494;5.386;2022-12-24T10:23:05;101156.06;;;19.26;47.76
61710;BME280;47633;51.494;5.386;2022-12-24T10:25:40;101148.03;;;19.27;47.48
61710;BME280;47633;51.494;5.386;2022-12-24T10:28:27;101151.38;;;19.29;47.57
61710;BME280;47633;51.494;5.386;2022-12-24T10:30:58;101147.78;;;19.30;47.68
61710;BME280;47633;51.494;5.386;2022-12-24T10:33:32;101144.44;;;19.28;47.86
61710;BME280;47633;51.494;5.386;2022-12-24T10:35:59;101143.31;;;19.31;47.68
61710;BME280;47633;51.494;5.386;2022-12-24T10:38:26;101148.97;;;19.26;47.60
61710;BME280;47633;51.494;5.386;2022-12-24T10:40:53;101156.41;;;19.32;47.90
61710;BME280;47633;51.494;5.386;2022-12-24T10:43:22;101159.66;;;19.36;47.63
61710;BME280;47633;51.494;5.386;2022-12-24T10:45:51;101161.19;;;19.38;47.61
61710;BME280;47633;51.494;5.386;2022-12-24T10:48:29;101164.66;;;19.39;47.43
61710;BME280;47633;51.494;5.386;2022-12-24T10:51:02;101166.47;;;19.38;47.74
61710;BME280;47633;51.494;5.386;2022-12-24T10:53:37;101156.88;;;19.37;47.54
61710;BME280;47633;51.494;5.386;2022-12-24T10:56:06;101155.44;;;19.33;47.47
61710;BME280;47633;51.494;5.386;2022-12-24T10:58:33;101161.56;;;19.34;47.69
61710;BME280;47633;51.494;5.386;2022-12-24T11:00:59;101163.00;;;19.38;47.53
61710;BME280;47633;51.494;5.386;2022-12-24T11:03:29;101163.97;;;19.37;47.62
61710;BME280;47633;51.494;5.386;2022-12-24T11:06:21;101161.19;;;19.38;47.67
61710;BME280;47633;51.494;5.386;2022-12-24T11:08:47;101172.47;;;19.40;47.43
61710;BME280;47633;51.494;5.386;2022-12-24T11:11:14;101157.84;;;19.36;47.44
61710;BME280;47633;51.494;5.386;2022-12-24T11:13:43;101167.31;;;19.39;47.28
61710;BME280;47633;51.494;5.386;2022-12-24T11:18:49;101164.09;;;19.35;47.38
61710;BME280;47633;51.494;5.386;2022-12-24T11:23:52;101172.47;;;19.40;47.64
61710;BME280;47633;51.494;5.386;2022-12-24T11:26:28;101166.34;;;19.40;47.63
61710;BME280;47633;51.494;5.386;2022-12-24T11:29:14;101175.72;;;19.44;47.68
61710;BME280;47633;51.494;5.386;2022-12-24T11:31:42;101177.38;;;19.45;47.63
61710;BME280;47633;51.494;5.386;2022-12-24T11:36:49;101160.63;;;19.35;47.40
61710;BME280;47633;51.494;5.386;2022-12-24T11:39:20;101178.63;;;19.41;47.28
61710;BME280;47633;51.494;5.386;2022-12-24T11:41:47;101178.63;;;19.41;47.28
61710;BME280;47633;51.494;5.386;2022-12-24T11:44:13;101186.41;;;19.43;47.28
61710;BME280;47633;51.494;5.386;2022-12-24T11:46:41;101193.50;;;19.42;47.42
61710;BME280;47633;51.494;5.386;2022-12-24T11:51:35;101196.38;;;19.39;47.31
61710;BME280;47633;51.494;5.386;2022-12-24T11:54:12;101186.09;;;19.36;47.42
61710;BME280;47633;51.494;5.386;2022-12-24T11:56:46;101192.31;;;19.35;47.52
61710;BME280;47633;51.494;5.386;2022-12-24T11:59:27;101197.50;;;19.36;47.39
61710;BME280;47633;51.494;5.386;2022-12-24T12:01:58;101190.38;;;19.37;47.37
61710;BME280;47633;51.494;5.386;2022-12-24T12:04:28;101187.41;;;19.30;48.00
61710;BME280;47633;51.494;5.386;2022-12-24T12:06:58;101184.66;;;19.32;47.28
61710;BME280;47633;51.494;5.386;2022-12-24T12:09:37;101191.75;;;19.31;47.21
61710;BME280;47633;51.494;5.386;2022-12-24T12:12:09;101188.25;;;19.31;47.35
61710;BME280;47633;51.494;5.386;2022-12-24T12:14:39;101186.72;;;19.28;47.42
61710;BME280;47633;51.494;5.386;2022-12-24T12:22:33;101192.56;;;19.32;47.43
61710;BME280;47633;51.494;5.386;2022-12-24T12:25:04;101199.91;;;19.28;47.83
61710;BME280;47633;51.494;5.386;2022-12-24T12:27:35;101195.59;;;19.27;47.64
61710;BME280;47633;51.494;5.386;2022-12-24T12:30:12;101200.88;;;19.27;47.70
61710;BME280;47633;51.494;5.386;2022-12-24T12:35:20;101203.38;;;19.29;47.49
61710;BME280;47633;51.494;5.386;2022-12-24T12:37:54;101217.56;;;19.28;47.36
61710;BME280;47633;51.494;5.386;2022-12-24T12:40:29;101208.22;;;19.24;47.23
61710;BME280;47633;51.494;5.386;2022-12-24T12:45:53;101213.50;;;19.24;47.35
61710;BME280;47633;51.494;5.386;2022-12-24T12:56:52;101227.53;;;19.24;47.48
61710;BME280;47633;51.494;5.386;2022-12-24T12:59:29;101218.03;;;19.21;47.63
61710;BME280;47633;51.494;5.386;2022-12-24T13:18:08;101231.00;;;19.36;47.84
61710;BME280;47633;51.494;5.386;2022-12-24T13:20:41;101217.06;;;19.34;47.71
61710;BME280;47633;51.494;5.386;2022-12-24T13:23:28;101223.09;;;19.36;47.56
61710;BME280;47633;51.494;5.386;2022-12-24T13:25:56;101229.09;;;19.38;47.34
61710;BME280;47633;51.494;5.386;2022-12-24T13:36:07;101232.44;;;19.40;47.36
61710;BME280;47633;51.494;5.386;2022-12-24T13:38:40;101239.28;;;19.43;47.42
61710;BME280;47633;51.494;5.386;2022-12-24T13:49:34;101242.50;;;19.46;47.08
61710;BME280;47633;51.494;5.386;2022-12-24T13:54:36;101242.75;;;19.43;46.68
61710;BME280;47633;51.494;5.386;2022-12-24T13:59:58;101261.25;;;19.43;46.53
61710;BME280;47633;51.494;5.386;2022-12-24T14:02:25;101259.56;;;19.42;46.34
61710;BME280;47633;51.494;5.386;2022-12-24T14:04:52;101255.25;;;19.41;46.64
61710;BME280;47633;51.494;5.386;2022-12-24T14:07:19;101258.97;;;19.38;46.72
61710;BME280;47633;51.494;5.386;2022-12-24T14:09:49;101253.22;;;19.33;46.73
61710;BME280;47633;51.494;5.386;2022-12-24T14:12:32;101254.81;;;19.36;46.63
61710;BME280;47633;51.494;5.386;2022-12-24T14:15:44;101258.53;;;19.33;46.57
61710;BME280;47633;51.494;5.386;2022-12-24T14:18:10;101264.88;;;19.31;46.61
61710;BME280;47633;51.494;5.386;2022-12-24T14:20:41;101275.56;;;19.29;46.60
61710;BME280;47633;51.494;5.386;2022-12-24T14:23:19;101274.97;;;19.26;46.56
61710;BME280;47633;51.494;5.386;2022-12-24T14:25:48;101274.03;;;19.27;46.70
61710;BME280;47633;51.494;5.386;2022-12-24T14:28:16;101270.06;;;19.21;46.51
61710;BME280;47633;51.494;5.386;2022-12-24T14:30:43;101272.47;;;19.24;46.43